Map

Track Data

SID SEASON NUMBER BASIN SUBBASIN NAME ISO_TIME NATURE LAT LON WMO_WIND WMO_PRES WMO_AGENCY TRACK_TYPE DIST2LAND LANDFALL IFLAG USA_AGENCY USA_ATCF_ID USA_LAT USA_LON USA_RECORD USA_STATUS USA_WIND USA_PRES USA_SSHS USA_R34_NE USA_R34_SE USA_R34_SW USA_R34_NW USA_R50_NE USA_R50_SE USA_R50_SW USA_R50_NW USA_R64_NE USA_R64_SE USA_R64_SW USA_R64_NW USA_POCI USA_ROCI USA_RMW USA_EYE TOKYO_LAT TOKYO_LON TOKYO_GRADE TOKYO_WIND TOKYO_PRES TOKYO_R50_DIR TOKYO_R50_LONG TOKYO_R50_SHORT TOKYO_R30_DIR TOKYO_R30_LONG TOKYO_R30_SHORT TOKYO_LAND CMA_LAT CMA_LON CMA_CAT CMA_WIND CMA_PRES HKO_LAT HKO_LON HKO_CAT HKO_WIND HKO_PRES NEWDELHI_LAT NEWDELHI_LON NEWDELHI_GRADE NEWDELHI_WIND NEWDELHI_PRES NEWDELHI_CI NEWDELHI_DP NEWDELHI_POCI REUNION_LAT REUNION_LON REUNION_TYPE REUNION_WIND REUNION_PRES REUNION_TNUM REUNION_CI REUNION_RMW REUNION_R34_NE REUNION_R34_SE REUNION_R34_SW REUNION_R34_NW REUNION_R50_NE REUNION_R50_SE REUNION_R50_SW REUNION_R50_NW REUNION_R64_NE REUNION_R64_SE REUNION_R64_SW REUNION_R64_NW BOM_LAT BOM_LON BOM_TYPE BOM_WIND BOM_PRES BOM_TNUM BOM_CI BOM_RMW BOM_R34_NE BOM_R34_SE BOM_R34_SW BOM_R34_NW BOM_R50_NE BOM_R50_SE BOM_R50_SW BOM_R50_NW BOM_R64_NE BOM_R64_SE BOM_R64_SW BOM_R64_NW BOM_ROCI BOM_POCI BOM_EYE BOM_POS_METHOD BOM_PRES_METHOD NADI_LAT NADI_LON NADI_CAT NADI_WIND NADI_PRES WELLINGTON_LAT WELLINGTON_LON WELLINGTON_WIND WELLINGTON_PRES DS824_LAT DS824_LON DS824_STAGE DS824_WIND DS824_PRES TD9636_LAT TD9636_LON TD9636_STAGE TD9636_WIND TD9636_PRES TD9635_LAT TD9635_LON TD9635_WIND TD9635_PRES TD9635_ROCI NEUMANN_LAT NEUMANN_LON NEUMANN_CLASS NEUMANN_WIND NEUMANN_PRES MLC_LAT MLC_LON MLC_CLASS MLC_WIND MLC_PRES USA_GUST BOM_GUST BOM_GUST_PER REUNION_GUST REUNION_GUST_PER USA_SEAHGT USA_SEARAD_NE USA_SEARAD_SE USA_SEARAD_SW USA_SEARAD_NW STORM_SPEED STORM_DIR
1910222N20126 1910 30 WP MM NOT_NAMED 1910-08-09 16:00:00 NR 19.6000 125.900 main 401 380 __________O___ -1 19.6000 125.900 4 22 323
1910222N20126 1910 30 WP MM NOT_NAMED 1910-08-09 18:00:00 NR 20.1918 125.432 main 382 377 __________P___ -1 20.1918 125.432 4 22 324
1910222N20126 1910 30 WP MM NOT_NAMED 1910-08-09 21:00:00 NR 21.0690 124.752 main 399 308 __________P___ -1 21.0690 124.752 4 21 325
1910222N20126 1910 30 WP MM NOT_NAMED 1910-08-10 00:00:00 NR 21.9218 124.138 main 308 229 __________P___ -1 21.9218 124.138 4 20 328
1910222N20126 1910 30 WP MM NOT_NAMED 1910-08-10 03:00:00 NR 22.7381 123.635 main 229 215 __________P___ -1 22.7381 123.635 4 19 331
1910222N20126 1910 30 WP MM NOT_NAMED 1910-08-10 04:00:00 NR 23.0000 123.500 main 215 180 __________O___ -1 23.0000 123.500 4 17 337
1910222N20126 1910 30 WP MM NOT_NAMED 1910-08-10 06:00:00 NR 23.5073 123.287 main 180 126 __________P___ -1 23.5073 123.287 4 15 344
1910222N20126 1910 30 WP MM NOT_NAMED 1910-08-10 09:00:00 NR 24.2316 123.108 main 126 111 __________P___ -1 24.2316 123.108 4 14 353
1910222N20126 1910 30 WP MM NOT_NAMED 1910-08-10 12:00:00 NR 24.9206 123.089 main 111 110 __________P___ -1 24.9206 123.089 4 14 4
1910222N20126 1910 30 WP MM NOT_NAMED 1910-08-10 15:00:00 NR 25.5834 123.223 main 137 137 __________P___ -1 25.5834 123.223 4 14 12
1910222N20126 1910 30 WP MM NOT_NAMED 1910-08-10 16:00:00 NR 25.8000 123.300 main 158 158 __________O___ -1 25.8000 123.300 4 15 19
1910222N20126 1910 30 WP MM NOT_NAMED 1910-08-10 18:00:00 NR 26.2869 123.493 main 208 208 __________P___ -1 26.2869 123.493 4 16 25
1910222N20126 1910 30 WP MM NOT_NAMED 1910-08-10 21:00:00 NR 26.9993 123.910 main 268 265 __________P___ -1 26.9993 123.910 4 16 31
1910222N20126 1910 30 WP MM NOT_NAMED 1910-08-11 00:00:00 NR 27.6424 124.417 main 285 282 __________P___ -1 27.6424 124.417 4 15 38
1910222N20126 1910 30 WP MM NOT_NAMED 1910-08-11 03:00:00 NR 28.1628 124.937 main 303 308 __________P___ -1 28.1628 124.937 4 13 42
1910222N20126 1910 30 WP MM NOT_NAMED 1910-08-11 04:00:00 NR 28.3000 125.100 main 318 318 __________O___ -1 28.3000 125.100 4 10 48
1910222N20126 1910 30 WP MM NOT_NAMED 1910-08-11 06:00:00 NR 28.5022 125.358 main 339 337 __________P___ -1 28.5022 125.358 4 8 55
1910222N20126 1910 30 WP MM NOT_NAMED 1910-08-11 09:00:00 NR 28.6799 125.719 main 363 363 __________P___ -1 28.6799 125.719 4 7 67
1910222N20126 1910 30 WP MM NOT_NAMED 1910-08-11 12:00:00 NR 28.7569 126.058 main 400 400 __________P___ -1 28.7569 126.058 4 6 79
1910222N20126 1910 30 WP MM NOT_NAMED 1910-08-11 15:00:00 NR 28.7894 126.389 main 429 429 __________P___ -1 28.7894 126.389 4 6 84
1910222N20126 1910 30 WP MM NOT_NAMED 1910-08-11 16:00:00 NR 28.8000 126.500 main 439 430 __________O___ -1 28.8000 126.500 4 6 82
1910222N20126 1910 30 WP MM NOT_NAMED 1910-08-11 18:00:00 NR 28.8301 126.725 main 430 393 __________P___ -1 28.8301 126.725 4 6 79
1910222N20126 1910 30 WP MM NOT_NAMED 1910-08-11 21:00:00 NR 28.8952 127.071 main 393 364 __________P___ -1 28.8952 127.071 4 6 76
1910222N20126 1910 30 WP MM NOT_NAMED 1910-08-12 00:00:00 NR 28.9773 127.424 main 364 328 __________P___ -1 28.9773 127.424 4 6 74
1910222N20126 1910 30 WP MM NOT_NAMED 1910-08-12 03:00:00 NR 29.0688 127.781 main 328 321 __________P___ -1 29.0688 127.781 4 7 74
1910222N20126 1910 30 WP MM NOT_NAMED 1910-08-12 04:00:00 NR 29.1000 127.900 main 321 __________O___ -1 29.1000 127.900 4 7 74

Digital Typhoon Data and Search

About IBTrACS Database

This database is a web-friendly format of International Best Track Archive for Climate Stewardship (IBTrACS), a global best track data archive curated by NOAA dating back to 1842.

Updated: 2021-10-27